createdAt,value
2019-03-20T00:01:46.629Z,9.80
2019-03-20T00:04:22.885Z,3.17
2019-03-20T00:07:13.758Z,5.58
2019-03-20T00:09:56.764Z,5.28
2019-03-20T00:12:54.141Z,6.97
2019-03-20T00:15:44.495Z,3.90
2019-03-20T00:18:28.388Z,5.17
2019-03-20T00:21:17.228Z,7.22
2019-03-20T00:24:01.010Z,7.55
2019-03-20T00:26:45.595Z,6.37
2019-03-20T00:29:35.072Z,6.87
2019-03-20T00:32:25.382Z,7.55
2019-03-20T00:35:21.603Z,8.75
2019-03-20T00:38:17.925Z,9.18
2019-03-20T00:41:09.481Z,8.18
2019-03-20T00:43:47.050Z,9.15
2019-03-20T00:46:36.807Z,10.95
2019-03-20T00:49:14.061Z,9.98
2019-03-20T00:52:04.304Z,9.08
2019-03-20T00:54:42.761Z,11.95
2019-03-20T00:57:33.755Z,10.78
2019-03-20T01:00:19.561Z,10.50
2019-03-20T01:03:09.277Z,11.05
2019-03-20T01:05:52.551Z,9.68
2019-03-20T01:08:47.743Z,9.10
2019-03-20T01:11:36.960Z,8.73
2019-03-20T01:14:20.027Z,10.80
2019-03-20T01:17:16.081Z,11.03
2019-03-20T01:20:11.422Z,9.78
2019-03-20T01:23:01.525Z,15.95
2019-03-20T01:25:44.486Z,15.28
2019-03-20T01:28:40.353Z,13.32
2019-03-20T01:31:30.066Z,11.30
2019-03-20T01:34:13.512Z,10.45
2019-03-20T01:37:09.428Z,12.63
2019-03-20T01:39:59.255Z,12.45
2019-03-20T01:42:43.368Z,10.55
2019-03-20T01:45:32.947Z,13.43
2019-03-20T01:48:17.536Z,13.83
2019-03-20T01:51:24.624Z,14.18
2019-03-20T01:54:07.720Z,10.43
2019-03-20T01:56:57.887Z,8.48
2019-03-20T01:59:34.356Z,10.85
2019-03-20T02:02:24.609Z,10.88
2019-03-20T02:05:01.768Z,11.60
2019-03-20T02:07:52.915Z,12.95
2019-03-20T02:10:29.658Z,12.70
2019-03-20T02:13:20.317Z,14.65
2019-03-20T02:15:56.747Z,8.58
2019-03-20T02:18:46.893Z,16.67
2019-03-20T02:21:30.568Z,10.98
2019-03-20T02:24:20.224Z,9.98
2019-03-20T02:27:04.284Z,12.00
2019-03-20T02:29:47.871Z,11.95
2019-03-20T02:32:38.381Z,14.23
2019-03-20T02:35:34.402Z,12.15
2019-03-20T02:38:32.359Z,11.88
2019-03-20T02:41:29.723Z,13.40
2019-03-20T02:44:21.062Z,11.85
2019-03-20T02:46:57.858Z,16.00
2019-03-20T02:49:48.211Z,11.60
2019-03-20T02:52:25.343Z,13.28
2019-03-20T02:55:18.635Z,11.05
2019-03-20T02:58:09.343Z,10.68
2019-03-20T03:00:52.621Z,10.03
2019-03-20T03:03:42.962Z,10.03
2019-03-20T03:06:19.500Z,15.75
2019-03-20T03:09:13.085Z,11.03
2019-03-20T03:11:50.329Z,17.45
2019-03-20T03:14:44.606Z,14.18
2019-03-20T03:17:21.919Z,15.38
2019-03-20T03:20:29.571Z,9.70
2019-03-20T03:23:22.417Z,12.73
2019-03-20T03:26:23.863Z,9.60
2019-03-20T03:35:32.373Z,11.75
2019-03-20T03:38:21.419Z,17.98
2019-03-20T03:41:16.429Z,10.35
2019-03-20T03:44:11.081Z,10.00
2019-03-20T03:50:16.737Z,10.08
2019-03-20T03:59:32.283Z,8.93
2019-03-20T04:02:24.092Z,8.78
2019-03-20T04:05:08.894Z,9.13
2019-03-20T04:07:59.614Z,8.60
2019-03-20T04:10:46.300Z,8.85
2019-03-20T04:17:00.553Z,8.73
2019-03-20T04:23:11.694Z,11.45
2019-03-20T04:29:05.337Z,16.55
2019-03-20T04:31:48.451Z,12.58
2019-03-20T04:34:31.885Z,10.70
2019-03-20T04:37:29.040Z,13.05
2019-03-20T04:40:32.684Z,13.13
2019-03-20T04:49:47.428Z,10.25
2019-03-20T04:52:32.561Z,11.43
2019-03-20T04:58:24.851Z,12.30
2019-03-20T05:01:17.231Z,10.08
2019-03-20T05:07:07.650Z,11.03
2019-03-20T05:10:00.465Z,10.15
2019-03-20T05:12:37.637Z,11.68
2019-03-20T05:15:37.212Z,8.33
2019-03-20T05:18:21.745Z,9.60
2019-03-20T05:21:07.227Z,8.85
2019-03-20T05:27:07.355Z,13.00
2019-03-20T05:30:06.797Z,12.88
2019-03-20T05:32:58.302Z,10.48
2019-03-20T05:35:36.975Z,9.90
2019-03-20T05:38:33.162Z,9.93
2019-03-20T05:41:22.963Z,9.63
2019-03-20T05:44:00.160Z,11.85
2019-03-20T05:46:50.239Z,12.03
2019-03-20T05:49:26.494Z,11.95
2019-03-20T05:52:16.558Z,12.03
2019-03-20T05:54:53.299Z,14.43
2019-03-20T05:57:42.953Z,11.30
2019-03-20T06:00:27.498Z,18.10
2019-03-20T06:03:17.220Z,11.75
2019-03-20T06:05:55.383Z,10.23
2019-03-20T06:08:53.138Z,16.23
2019-03-20T06:14:42.751Z,11.83
2019-03-20T06:17:20.555Z,12.70
2019-03-20T06:20:14.281Z,13.58
2019-03-20T06:22:57.126Z,14.47
2019-03-20T06:25:47.469Z,25.57
2019-03-20T06:28:23.720Z,11.97
2019-03-20T06:31:13.771Z,13.48
2019-03-20T06:33:53.443Z,16.77
2019-03-20T06:36:42.946Z,15.95
2019-03-20T06:39:21.417Z,14.75
2019-03-20T06:42:15.028Z,13.62
2019-03-20T06:44:51.980Z,15.75
2019-03-20T06:47:42.562Z,11.90
2019-03-20T06:50:25.446Z,17.70
2019-03-20T06:53:16.560Z,18.80
2019-03-20T06:55:53.810Z,18.42
2019-03-20T06:58:45.535Z,12.75
2019-03-20T07:01:34.087Z,11.40
2019-03-20T07:04:45.160Z,13.60
2019-03-20T07:07:44.926Z,16.73
2019-03-20T07:10:56.515Z,9.10
2019-03-20T07:13:53.556Z,10.50
2019-03-20T07:16:44.491Z,12.82
2019-03-20T07:19:28.381Z,7.62
2019-03-20T07:22:25.177Z,13.88
2019-03-20T07:25:16.766Z,8.83
2019-03-20T07:27:54.880Z,8.28
2019-03-20T07:30:47.165Z,10.50
2019-03-20T07:33:25.480Z,7.30
2019-03-20T07:36:14.927Z,7.12
2019-03-20T07:39:00.319Z,9.20
2019-03-20T07:41:43.747Z,8.25
2019-03-20T07:44:36.604Z,4.40
2019-03-20T07:47:13.695Z,7.62
2019-03-20T07:50:10.748Z,5.62
2019-03-20T07:53:06.447Z,4.30
2019-03-20T07:56:01.288Z,5.12
2019-03-20T07:58:50.840Z,3.70
2019-03-20T08:01:27.239Z,5.28
2019-03-20T08:04:17.471Z,8.23
2019-03-20T08:06:54.437Z,3.92
2019-03-20T08:09:44.186Z,5.60
2019-03-20T08:12:21.597Z,3.98
2019-03-20T08:15:15.345Z,8.23
2019-03-20T08:17:52.605Z,7.67
2019-03-20T08:20:43.121Z,4.42
2019-03-20T08:23:20.185Z,6.53
2019-03-20T08:26:10.882Z,4.78
2019-03-20T08:28:47.873Z,6.00
2019-03-20T08:31:38.366Z,4.28
2019-03-20T08:34:16.466Z,5.72
2019-03-20T08:37:08.250Z,11.50
2019-03-20T08:40:05.551Z,5.53
2019-03-20T08:43:02.379Z,7.53
2019-03-20T08:45:52.261Z,5.40
2019-03-20T08:48:30.497Z,6.22
2019-03-20T08:51:21.415Z,6.78
2019-03-20T08:54:04.659Z,4.60
2019-03-20T08:56:48.141Z,6.53
2019-03-20T08:59:32.005Z,3.70
2019-03-20T09:02:16.005Z,9.73
2019-03-20T09:05:00.389Z,5.20
2019-03-20T09:07:46.811Z,6.60
2019-03-20T09:10:34.891Z,14.07
2019-03-20T09:13:20.566Z,4.90
2019-03-20T09:16:16.192Z,9.40
2019-03-20T09:19:19.098Z,4.37
2019-03-20T09:22:17.739Z,5.47
2019-03-20T09:25:17.753Z,5.47
2019-03-20T09:28:15.397Z,2.92
2019-03-20T09:34:12.695Z,5.90
2019-03-20T09:37:08.771Z,6.00
2019-03-20T09:40:06.078Z,4.95
2019-03-20T09:42:57.986Z,3.70
2019-03-20T09:45:41.672Z,4.22
2019-03-20T09:48:43.745Z,5.45
2019-03-20T09:51:41.979Z,6.17
2019-03-20T09:54:25.930Z,9.60
2019-03-20T09:57:25.089Z,5.45
2019-03-20T10:00:34.307Z,5.50
2019-03-20T10:03:26.347Z,3.77
2019-03-20T10:06:10.522Z,9.98
2019-03-20T10:09:07.596Z,5.78
2019-03-20T10:12:04.952Z,5.03
2019-03-20T10:14:55.870Z,4.72
2019-03-20T10:17:43.320Z,6.17
2019-03-20T10:20:33.552Z,6.83
2019-03-20T10:23:14.456Z,7.10
2019-03-20T10:26:08.612Z,5.42
2019-03-20T10:28:47.282Z,6.05
2019-03-20T10:31:39.418Z,8.03
2019-03-20T10:34:16.433Z,6.92
2019-03-20T10:37:11.255Z,6.28
2019-03-20T10:39:53.533Z,6.95
2019-03-20T10:56:00.585Z,4.65
2019-03-20T10:58:53.267Z,9.50
2019-03-20T11:01:42.130Z,6.45
2019-03-20T11:04:36.075Z,5.37
2019-03-20T11:10:42.345Z,4.25
2019-03-20T11:13:40.698Z,4.58
2019-03-20T11:16:24.642Z,5.97
2019-03-20T11:19:08.255Z,7.10
2019-03-20T11:21:46.825Z,5.45
2019-03-20T11:24:39.064Z,7.37
2019-03-20T11:27:15.247Z,7.03
2019-03-20T11:30:05.555Z,5.83
2019-03-20T11:32:42.082Z,6.58
2019-03-20T11:35:35.279Z,6.87
2019-03-20T11:38:11.988Z,7.10
2019-03-20T11:41:02.835Z,6.20
2019-03-20T11:43:39.826Z,5.90
2019-03-20T11:46:37.683Z,8.23
2019-03-20T11:49:24.986Z,5.37
2019-03-20T11:52:16.186Z,6.53
2019-03-20T11:54:55.544Z,6.17
2019-03-20T11:57:47.446Z,6.90
2019-03-20T12:00:25.576Z,5.05
2019-03-20T12:03:25.575Z,5.15
2019-03-20T12:06:02.774Z,6.60
2019-03-20T12:12:06.638Z,5.20
2019-03-20T12:14:59.142Z,5.37
2019-03-20T12:17:36.090Z,5.47
2019-03-20T12:20:30.807Z,6.70
2019-03-20T12:26:21.894Z,9.35
2019-03-20T12:29:07.395Z,4.70
2019-03-20T12:32:00.453Z,8.23
2019-03-20T12:34:50.047Z,5.08
2019-03-20T12:37:47.482Z,5.03
2019-03-20T12:40:38.407Z,5.83
2019-03-20T12:43:16.051Z,5.15
2019-03-20T12:46:16.657Z,5.37
2019-03-20T12:48:55.936Z,6.85
2019-03-20T12:51:49.910Z,8.10
2019-03-20T12:54:29.622Z,8.00
2019-03-20T12:57:20.828Z,6.72
2019-03-20T13:00:00.706Z,7.25
2019-03-20T13:02:50.375Z,8.33
2019-03-20T13:05:34.693Z,6.90
2019-03-20T13:08:32.207Z,8.20
2019-03-20T13:11:30.058Z,6.97
2019-03-20T13:14:30.376Z,5.72
2019-03-20T13:17:20.007Z,7.45
2019-03-20T13:19:59.125Z,7.12
2019-03-20T13:22:50.261Z,6.85
2019-03-20T13:25:33.846Z,6.20
2019-03-20T13:28:31.340Z,8.43
2019-03-20T13:31:32.047Z,6.15
2019-03-20T13:34:28.030Z,6.05
2019-03-20T13:37:23.318Z,6.72
2019-03-20T13:40:26.208Z,6.00
2019-03-20T13:43:21.537Z,6.50
2019-03-20T13:46:16.722Z,6.83
2019-03-20T13:49:09.303Z,7.12
2019-03-20T13:51:53.046Z,7.37
2019-03-20T13:54:37.807Z,6.22
2019-03-20T13:57:28.624Z,7.53
2019-03-20T14:00:24.796Z,6.85
2019-03-20T14:03:09.201Z,7.50
2019-03-20T14:05:52.791Z,7.97
2019-03-20T14:08:37.864Z,7.92
2019-03-20T14:11:22.847Z,9.53
2019-03-20T14:14:07.662Z,9.15
2019-03-20T14:16:54.679Z,7.87
2019-03-20T14:19:46.413Z,11.15
2019-03-20T14:22:23.537Z,7.65
2019-03-20T14:25:20.732Z,8.18
2019-03-20T14:28:08.520Z,7.42
2019-03-20T14:30:54.840Z,8.43
2019-03-20T14:33:38.551Z,8.33
2019-03-20T14:36:28.580Z,10.58
2019-03-20T14:39:07.478Z,7.10
2019-03-20T14:41:58.905Z,7.50
2019-03-20T14:44:51.544Z,7.08
2019-03-20T14:47:47.972Z,7.17
2019-03-20T14:50:32.302Z,5.95
2019-03-20T14:53:22.712Z,8.05
2019-03-20T14:55:59.983Z,6.70
2019-03-20T14:58:50.509Z,7.65
2019-03-20T15:01:27.566Z,7.00
2019-03-20T15:04:16.461Z,7.25
2019-03-20T15:06:53.350Z,7.62
2019-03-20T15:09:45.351Z,8.18
2019-03-20T15:12:29.939Z,9.98
2019-03-20T15:15:34.843Z,8.20
2019-03-20T15:18:11.388Z,9.78
2019-03-20T15:21:01.720Z,9.85
2019-03-20T15:23:46.090Z,9.50
2019-03-20T15:26:34.923Z,8.73
2019-03-20T15:29:11.702Z,12.63
2019-03-20T15:32:02.827Z,8.18
2019-03-20T15:34:58.491Z,7.75
2019-03-20T15:37:49.027Z,8.25
2019-03-20T15:40:30.207Z,8.50
2019-03-20T15:43:21.257Z,9.88
2019-03-20T15:46:04.608Z,9.68
2019-03-20T15:48:56.160Z,10.25
2019-03-20T15:51:33.125Z,9.48
2019-03-20T15:54:22.731Z,9.58
2019-03-20T15:57:08.576Z,10.78
2019-03-20T16:00:04.658Z,8.43
2019-03-20T16:03:02.316Z,7.85
2019-03-20T16:05:59.665Z,10.10
2019-03-20T16:08:56.991Z,8.28
2019-03-20T16:11:48.093Z,8.05
2019-03-20T16:14:26.869Z,10.28
2019-03-20T16:17:20.000Z,7.50
2019-03-20T16:19:57.756Z,10.15
2019-03-20T16:22:47.744Z,11.83
2019-03-20T16:25:33.588Z,8.65
2019-03-20T16:28:29.746Z,17.50
2019-03-20T16:31:18.931Z,10.45
2019-03-20T16:34:21.096Z,8.23
2019-03-20T16:37:19.153Z,13.25
2019-03-20T16:40:15.533Z,12.80
2019-03-20T16:43:00.619Z,13.62
2019-03-20T16:45:51.065Z,9.83
2019-03-20T16:48:38.606Z,10.72
2019-03-20T16:51:37.703Z,8.75
2019-03-20T16:54:29.043Z,11.73
2019-03-20T16:57:06.772Z,10.10
2019-03-20T16:59:57.486Z,10.88
2019-03-20T17:02:41.427Z,9.68
2019-03-20T17:05:30.290Z,10.05
2019-03-20T17:08:07.384Z,8.40
2019-03-20T17:10:58.088Z,11.80
2019-03-20T17:13:36.363Z,10.98
2019-03-20T17:16:27.042Z,13.65
2019-03-20T17:19:03.966Z,10.75
2019-03-20T17:22:09.326Z,12.20
2019-03-20T17:25:08.572Z,10.58
2019-03-20T17:28:03.467Z,25.20
2019-03-20T17:30:51.981Z,8.60
2019-03-20T17:33:48.069Z,12.60
2019-03-20T17:36:43.892Z,13.50
2019-03-20T17:39:33.136Z,11.93
2019-03-20T17:42:16.160Z,11.18
2019-03-20T17:45:11.934Z,12.63
2019-03-20T17:48:08.139Z,16.50
2019-03-20T17:50:57.620Z,12.63
2019-03-20T17:53:34.777Z,13.65
2019-03-20T17:56:24.840Z,13.10
2019-03-20T17:59:00.979Z,8.43
2019-03-20T18:01:51.663Z,10.00
2019-03-20T18:04:28.116Z,11.55
2019-03-20T18:07:18.607Z,9.43
2019-03-20T18:09:55.923Z,10.30
2019-03-20T18:12:45.907Z,15.98
2019-03-20T18:15:23.010Z,7.97
2019-03-20T18:18:13.884Z,10.80
2019-03-20T18:20:50.805Z,9.15
2019-03-20T18:23:42.912Z,8.58
2019-03-20T18:26:22.019Z,9.40
2019-03-20T18:29:24.392Z,9.70
2019-03-20T18:32:06.735Z,11.97
2019-03-20T18:34:50.308Z,8.18
2019-03-20T18:37:32.818Z,8.85
2019-03-20T18:40:25.854Z,11.22
2019-03-20T18:43:14.871Z,10.78
2019-03-20T18:45:52.368Z,11.43
2019-03-20T18:48:42.279Z,14.20
2019-03-20T18:51:19.524Z,8.88
2019-03-20T18:54:10.021Z,11.73
2019-03-20T18:56:53.946Z,13.45
2019-03-20T18:59:37.800Z,11.88
2019-03-20T19:02:22.211Z,11.65
2019-03-20T19:05:07.792Z,9.98
2019-03-20T19:07:57.196Z,10.78
2019-03-20T19:10:33.664Z,10.38
2019-03-20T19:13:24.448Z,11.05
2019-03-20T19:16:04.542Z,12.58
2019-03-20T19:18:54.707Z,8.33
2019-03-20T19:21:31.518Z,11.20
2019-03-20T19:24:23.421Z,10.65
2019-03-20T19:27:00.077Z,12.85
2019-03-20T19:29:49.744Z,9.95
2019-03-20T19:32:25.821Z,18.02
2019-03-20T19:35:16.835Z,12.68
2019-03-20T19:38:03.495Z,11.40
2019-03-20T19:41:01.402Z,13.50
2019-03-20T19:43:52.866Z,18.90
2019-03-20T19:46:29.606Z,13.08
2019-03-20T19:49:27.412Z,17.75
2019-03-20T19:52:18.163Z,14.65
2019-03-20T19:54:55.323Z,19.55
2019-03-20T19:57:45.412Z,14.93
2019-03-20T20:00:31.999Z,16.00
2019-03-20T20:03:21.256Z,16.50
2019-03-20T20:06:11.394Z,16.35
2019-03-20T20:08:49.627Z,13.40
2019-03-20T20:11:42.097Z,13.98
2019-03-20T20:14:20.121Z,17.35
2019-03-20T20:17:11.343Z,14.20
2019-03-20T20:19:54.977Z,13.00
2019-03-20T20:22:44.374Z,14.80
2019-03-20T20:25:27.683Z,12.95
2019-03-20T20:28:13.087Z,12.75
2019-03-20T20:30:56.698Z,14.05
2019-03-20T20:33:33.257Z,14.68
2019-03-20T20:36:24.053Z,12.20
2019-03-20T20:39:04.267Z,19.65
2019-03-20T20:41:55.036Z,16.10
2019-03-20T20:44:32.125Z,15.63
2019-03-20T20:47:24.871Z,22.02
2019-03-20T20:50:02.081Z,15.70
2019-03-20T20:52:52.041Z,17.07
2019-03-20T20:55:38.103Z,13.68
2019-03-20T20:58:21.935Z,15.60
2019-03-20T21:01:11.190Z,9.65
2019-03-20T21:03:51.976Z,11.03
2019-03-20T21:06:41.511Z,10.65
2019-03-20T21:09:18.881Z,11.35
2019-03-20T21:12:13.785Z,10.48
2019-03-20T21:14:50.433Z,7.10
2019-03-20T21:17:46.252Z,8.63
2019-03-20T21:20:23.285Z,9.98
2019-03-20T21:23:49.877Z,11.10
2019-03-20T21:26:41.274Z,14.50
2019-03-20T21:30:08.107Z,8.60
2019-03-20T21:32:59.616Z,10.32
2019-03-20T21:36:18.098Z,8.70
2019-03-20T21:38:57.620Z,9.68
2019-03-20T21:42:28.369Z,10.95
2019-03-20T21:45:20.671Z,7.70
2019-03-20T21:48:05.027Z,7.33
2019-03-20T21:51:00.326Z,9.35
2019-03-20T21:54:03.550Z,9.18
2019-03-20T21:57:14.166Z,7.78
2019-03-20T22:00:00.413Z,12.90
2019-03-20T22:02:52.029Z,8.95
2019-03-20T22:06:04.983Z,10.75
2019-03-20T22:08:55.044Z,9.65
2019-03-20T22:12:04.178Z,9.55
2019-03-20T22:15:03.299Z,7.72
2019-03-20T22:18:05.677Z,6.72
2019-03-20T22:21:08.459Z,8.78
2019-03-20T22:24:25.659Z,10.38
2019-03-20T22:27:35.582Z,8.90
2019-03-20T22:37:03.826Z,9.53
2019-03-20T22:40:08.362Z,7.95
2019-03-20T22:53:29.359Z,4.95
2019-03-20T22:56:28.563Z,8.35
2019-03-20T22:59:07.237Z,6.62
2019-03-20T23:02:06.233Z,8.33
2019-03-20T23:05:04.572Z,6.10
2019-03-20T23:07:59.720Z,6.67
2019-03-20T23:10:49.303Z,5.03
2019-03-20T23:13:26.212Z,5.67
2019-03-20T23:16:18.867Z,7.05
2019-03-20T23:19:01.488Z,6.12
2019-03-20T23:21:58.517Z,7.95
2019-03-20T23:24:55.573Z,6.10
2019-03-20T23:27:45.851Z,7.37
2019-03-20T23:30:25.647Z,6.45
2019-03-20T23:33:16.123Z,8.65
2019-03-20T23:35:52.986Z,6.97
2019-03-20T23:38:42.744Z,6.30
2019-03-20T23:41:25.890Z,7.20
2019-03-20T23:44:21.774Z,4.97
2019-03-20T23:47:11.479Z,8.55
2019-03-20T23:49:47.816Z,7.92
2019-03-20T23:52:43.566Z,6.90
2019-03-20T23:55:39.681Z,6.80
2019-03-20T23:58:35.199Z,5.83
